sensor_id;sensor_type;location;lat;lon;timestamp;P1;durP1;ratioP1;P2;durP2;ratioP2
249;SDS011;109;19.806;-70.704;2024-01-27T00:02:06;28.43;;;5.20;;
249;SDS011;109;19.806;-70.704;2024-01-27T00:04:32;21.33;;;4.10;;
249;SDS011;109;19.806;-70.704;2024-01-27T00:07:00;21.97;;;5.70;;
249;SDS011;109;19.806;-70.704;2024-01-27T00:09:27;25.30;;;4.87;;
249;SDS011;109;19.806;-70.704;2024-01-27T00:11:53;26.03;;;4.20;;
249;SDS011;109;19.806;-70.704;2024-01-27T00:14:20;25.53;;;4.67;;
249;SDS011;109;19.806;-70.704;2024-01-27T00:16:46;29.80;;;5.53;;
249;SDS011;109;19.806;-70.704;2024-01-27T00:19:12;20.80;;;3.77;;
249;SDS011;109;19.806;-70.704;2024-01-27T00:21:39;16.17;;;3.67;;
249;SDS011;109;19.806;-70.704;2024-01-27T00:24:05;12.00;;;3.63;;
249;SDS011;109;19.806;-70.704;2024-01-27T00:26:32;20.63;;;5.13;;
249;SDS011;109;19.806;-70.704;2024-01-27T00:28:58;18.60;;;4.10;;
249;SDS011;109;19.806;-70.704;2024-01-27T00:31:24;17.87;;;3.67;;
249;SDS011;109;19.806;-70.704;2024-01-27T00:33:51;31.57;;;7.90;;
249;SDS011;109;19.806;-70.704;2024-01-27T00:36:18;16.60;;;4.37;;
249;SDS011;109;19.806;-70.704;2024-01-27T00:38:45;12.27;;;3.47;;
249;SDS011;109;19.806;-70.704;2024-01-27T00:41:18;16.57;;;3.80;;
249;SDS011;109;19.806;-70.704;2024-01-27T00:43:45;28.67;;;4.40;;
249;SDS011;109;19.806;-70.704;2024-01-27T00:46:11;23.23;;;3.83;;
249;SDS011;109;19.806;-70.704;2024-01-27T00:48:38;12.53;;;3.60;;
249;SDS011;109;19.806;-70.704;2024-01-27T00:51:04;31.10;;;6.10;;
249;SDS011;109;19.806;-70.704;2024-01-27T00:53:31;19.33;;;4.10;;
249;SDS011;109;19.806;-70.704;2024-01-27T00:55:57;14.47;;;4.07;;
249;SDS011;109;19.806;-70.704;2024-01-27T00:58:24;15.40;;;3.57;;
249;SDS011;109;19.806;-70.704;2024-01-27T01:00:50;30.40;;;6.07;;
249;SDS011;109;19.806;-70.704;2024-01-27T01:03:16;23.60;;;3.70;;
249;SDS011;109;19.806;-70.704;2024-01-27T01:05:43;17.43;;;3.63;;
249;SDS011;109;19.806;-70.704;2024-01-27T01:08:09;11.00;;;3.17;;
249;SDS011;109;19.806;-70.704;2024-01-27T01:10:36;17.67;;;3.80;;
249;SDS011;109;19.806;-70.704;2024-01-27T01:13:02;20.90;;;4.00;;
249;SDS011;109;19.806;-70.704;2024-01-27T01:15:28;12.70;;;3.63;;
249;SDS011;109;19.806;-70.704;2024-01-27T01:17:55;15.10;;;3.70;;
249;SDS011;109;19.806;-70.704;2024-01-27T01:20:21;14.70;;;3.47;;
249;SDS011;109;19.806;-70.704;2024-01-27T01:22:48;15.40;;;2.80;;
249;SDS011;109;19.806;-70.704;2024-01-27T01:25:14;16.07;;;4.20;;
249;SDS011;109;19.806;-70.704;2024-01-27T01:27:48;13.83;;;3.23;;
249;SDS011;109;19.806;-70.704;2024-01-27T01:30:15;17.80;;;4.43;;
249;SDS011;109;19.806;-70.704;2024-01-27T01:32:49;21.37;;;3.70;;
249;SDS011;109;19.806;-70.704;2024-01-27T01:35:16;13.13;;;3.20;;
249;SDS011;109;19.806;-70.704;2024-01-27T01:37:49;15.70;;;3.67;;
249;SDS011;109;19.806;-70.704;2024-01-27T01:40:15;17.37;;;4.17;;
249;SDS011;109;19.806;-70.704;2024-01-27T01:42:52;13.80;;;3.40;;
249;SDS011;109;19.806;-70.704;2024-01-27T01:45:28;9.90;;;3.43;;
249;SDS011;109;19.806;-70.704;2024-01-27T01:48:13;15.00;;;3.20;;
249;SDS011;109;19.806;-70.704;2024-01-27T01:50:47;17.47;;;3.57;;
249;SDS011;109;19.806;-70.704;2024-01-27T01:53:28;15.47;;;3.57;;
249;SDS011;109;19.806;-70.704;2024-01-27T01:55:54;17.93;;;3.70;;
249;SDS011;109;19.806;-70.704;2024-01-27T01:58:28;18.43;;;3.73;;
249;SDS011;109;19.806;-70.704;2024-01-27T02:01:06;14.27;;;3.37;;
249;SDS011;109;19.806;-70.704;2024-01-27T02:03:32;14.07;;;3.73;;
249;SDS011;109;19.806;-70.704;2024-01-27T02:06:06;17.30;;;3.63;;
249;SDS011;109;19.806;-70.704;2024-01-27T02:08:32;13.33;;;3.50;;
249;SDS011;109;19.806;-70.704;2024-01-27T02:11:05;14.60;;;3.73;;
249;SDS011;109;19.806;-70.704;2024-01-27T02:13:31;19.70;;;4.40;;
249;SDS011;109;19.806;-70.704;2024-01-27T02:16:04;17.03;;;3.30;;
249;SDS011;109;19.806;-70.704;2024-01-27T02:18:31;15.50;;;3.47;;
249;SDS011;109;19.806;-70.704;2024-01-27T02:21:04;14.73;;;3.07;;
249;SDS011;109;19.806;-70.704;2024-01-27T02:23:30;23.80;;;3.70;;
249;SDS011;109;19.806;-70.704;2024-01-27T02:26:03;14.40;;;3.43;;
249;SDS011;109;19.806;-70.704;2024-01-27T02:28:29;11.43;;;4.30;;
249;SDS011;109;19.806;-70.704;2024-01-27T02:31:05;13.73;;;3.73;;
249;SDS011;109;19.806;-70.704;2024-01-27T02:33:31;16.60;;;3.90;;
249;SDS011;109;19.806;-70.704;2024-01-27T02:36:04;14.27;;;3.67;;
249;SDS011;109;19.806;-70.704;2024-01-27T02:38:30;24.63;;;3.80;;
249;SDS011;109;19.806;-70.704;2024-01-27T02:41:04;19.50;;;4.07;;
249;SDS011;109;19.806;-70.704;2024-01-27T02:43:30;17.87;;;4.63;;
249;SDS011;109;19.806;-70.704;2024-01-27T02:46:05;15.40;;;3.50;;
249;SDS011;109;19.806;-70.704;2024-01-27T02:48:47;17.90;;;3.67;;
249;SDS011;109;19.806;-70.704;2024-01-27T02:51:13;12.40;;;3.30;;
249;SDS011;109;19.806;-70.704;2024-01-27T02:53:52;21.77;;;3.97;;
249;SDS011;109;19.806;-70.704;2024-01-27T02:56:18;14.13;;;3.50;;
249;SDS011;109;19.806;-70.704;2024-01-27T02:58:51;12.47;;;4.03;;
249;SDS011;109;19.806;-70.704;2024-01-27T03:01:17;20.53;;;3.27;;
249;SDS011;109;19.806;-70.704;2024-01-27T03:03:50;20.60;;;3.27;;
249;SDS011;109;19.806;-70.704;2024-01-27T03:06:16;23.03;;;3.53;;
249;SDS011;109;19.806;-70.704;2024-01-27T03:08:49;13.33;;;3.30;;
249;SDS011;109;19.806;-70.704;2024-01-27T03:11:15;20.43;;;4.20;;
249;SDS011;109;19.806;-70.704;2024-01-27T03:13:48;19.90;;;3.50;;
249;SDS011;109;19.806;-70.704;2024-01-27T03:16:14;16.27;;;3.70;;
249;SDS011;109;19.806;-70.704;2024-01-27T03:18:49;24.63;;;4.40;;
249;SDS011;109;19.806;-70.704;2024-01-27T03:21:15;15.20;;;3.30;;
249;SDS011;109;19.806;-70.704;2024-01-27T03:23:48;15.63;;;3.13;;
249;SDS011;109;19.806;-70.704;2024-01-27T03:26:14;16.10;;;3.33;;
249;SDS011;109;19.806;-70.704;2024-01-27T03:28:47;22.30;;;3.30;;
249;SDS011;109;19.806;-70.704;2024-01-27T03:31:13;20.33;;;3.30;;
249;SDS011;109;19.806;-70.704;2024-01-27T03:33:46;19.87;;;3.20;;
249;SDS011;109;19.806;-70.704;2024-01-27T03:36:13;31.97;;;4.10;;
249;SDS011;109;19.806;-70.704;2024-01-27T03:38:46;19.30;;;3.60;;
249;SDS011;109;19.806;-70.704;2024-01-27T03:41:12;22.73;;;3.87;;
249;SDS011;109;19.806;-70.704;2024-01-27T03:43:45;16.73;;;3.47;;
249;SDS011;109;19.806;-70.704;2024-01-27T03:46:11;15.47;;;3.60;;
249;SDS011;109;19.806;-70.704;2024-01-27T03:48:44;20.00;;;4.03;;
249;SDS011;109;19.806;-70.704;2024-01-27T03:51:10;13.50;;;3.43;;
249;SDS011;109;19.806;-70.704;2024-01-27T03:53:43;14.70;;;3.30;;
249;SDS011;109;19.806;-70.704;2024-01-27T03:56:11;13.27;;;2.60;;
249;SDS011;109;19.806;-70.704;2024-01-27T03:58:45;17.60;;;3.53;;
249;SDS011;109;19.806;-70.704;2024-01-27T04:01:11;10.07;;;2.90;;
249;SDS011;109;19.806;-70.704;2024-01-27T04:03:44;16.90;;;3.80;;
249;SDS011;109;19.806;-70.704;2024-01-27T04:06:10;20.30;;;3.03;;
249;SDS011;109;19.806;-70.704;2024-01-27T04:08:43;13.77;;;2.93;;
249;SDS011;109;19.806;-70.704;2024-01-27T04:11:18;12.73;;;2.97;;
249;SDS011;109;19.806;-70.704;2024-01-27T04:13:52;10.70;;;2.60;;
249;SDS011;109;19.806;-70.704;2024-01-27T04:16:18;15.63;;;3.23;;
249;SDS011;109;19.806;-70.704;2024-01-27T04:18:51;14.00;;;3.27;;
249;SDS011;109;19.806;-70.704;2024-01-27T04:21:17;12.23;;;2.70;;
249;SDS011;109;19.806;-70.704;2024-01-27T04:23:50;16.70;;;4.00;;
249;SDS011;109;19.806;-70.704;2024-01-27T04:26:16;15.10;;;2.63;;
249;SDS011;109;19.806;-70.704;2024-01-27T04:28:49;9.53;;;2.70;;
249;SDS011;109;19.806;-70.704;2024-01-27T04:31:15;14.87;;;3.07;;
249;SDS011;109;19.806;-70.704;2024-01-27T04:33:48;14.90;;;2.70;;
249;SDS011;109;19.806;-70.704;2024-01-27T04:36:14;13.20;;;3.40;;
249;SDS011;109;19.806;-70.704;2024-01-27T04:38:56;13.83;;;2.50;;
249;SDS011;109;19.806;-70.704;2024-01-27T04:41:22;14.07;;;2.77;;
249;SDS011;109;19.806;-70.704;2024-01-27T04:44:01;11.13;;;2.87;;
249;SDS011;109;19.806;-70.704;2024-01-27T04:46:35;9.93;;;2.53;;
249;SDS011;109;19.806;-70.704;2024-01-27T04:49:01;16.13;;;2.87;;
249;SDS011;109;19.806;-70.704;2024-01-27T04:51:34;10.53;;;2.80;;
249;SDS011;109;19.806;-70.704;2024-01-27T04:54:21;15.27;;;3.10;;
249;SDS011;109;19.806;-70.704;2024-01-27T04:56:54;14.27;;;3.23;;
249;SDS011;109;19.806;-70.704;2024-01-27T04:59:20;14.33;;;3.30;;
249;SDS011;109;19.806;-70.704;2024-01-27T05:01:53;8.83;;;2.90;;
249;SDS011;109;19.806;-70.704;2024-01-27T05:04:19;14.87;;;2.73;;
249;SDS011;109;19.806;-70.704;2024-01-27T05:06:52;10.63;;;3.10;;
249;SDS011;109;19.806;-70.704;2024-01-27T05:09:18;9.43;;;3.30;;
249;SDS011;109;19.806;-70.704;2024-01-27T05:11:51;14.27;;;4.17;;
249;SDS011;109;19.806;-70.704;2024-01-27T05:14:19;15.40;;;3.10;;
249;SDS011;109;19.806;-70.704;2024-01-27T05:16:52;13.93;;;3.10;;
249;SDS011;109;19.806;-70.704;2024-01-27T05:19:18;22.50;;;3.80;;
249;SDS011;109;19.806;-70.704;2024-01-27T05:21:51;13.47;;;3.20;;
249;SDS011;109;19.806;-70.704;2024-01-27T05:24:18;11.20;;;3.00;;
249;SDS011;109;19.806;-70.704;2024-01-27T05:26:51;15.73;;;3.47;;
249;SDS011;109;19.806;-70.704;2024-01-27T05:29:17;21.90;;;3.50;;
249;SDS011;109;19.806;-70.704;2024-01-27T05:31:50;14.27;;;3.70;;
249;SDS011;109;19.806;-70.704;2024-01-27T05:34:16;11.77;;;3.73;;
249;SDS011;109;19.806;-70.704;2024-01-27T05:36:50;18.50;;;3.70;;
249;SDS011;109;19.806;-70.704;2024-01-27T05:39:16;13.20;;;3.03;;
249;SDS011;109;19.806;-70.704;2024-01-27T05:41:49;12.23;;;3.20;;
249;SDS011;109;19.806;-70.704;2024-01-27T05:44:15;17.40;;;3.10;;
249;SDS011;109;19.806;-70.704;2024-01-27T05:46:48;19.13;;;3.40;;
249;SDS011;109;19.806;-70.704;2024-01-27T05:49:14;21.30;;;3.27;;
249;SDS011;109;19.806;-70.704;2024-01-27T05:51:47;14.60;;;3.10;;
249;SDS011;109;19.806;-70.704;2024-01-27T05:54:27;22.10;;;3.83;;
249;SDS011;109;19.806;-70.704;2024-01-27T05:56:53;14.77;;;3.07;;
249;SDS011;109;19.806;-70.704;2024-01-27T05:59:26;12.43;;;3.10;;
249;SDS011;109;19.806;-70.704;2024-01-27T06:01:52;12.27;;;3.00;;
249;SDS011;109;19.806;-70.704;2024-01-27T06:04:25;10.30;;;2.80;;
249;SDS011;109;19.806;-70.704;2024-01-27T06:06:51;14.20;;;3.23;;
249;SDS011;109;19.806;-70.704;2024-01-27T06:09:24;12.20;;;2.87;;
249;SDS011;109;19.806;-70.704;2024-01-27T06:11:50;18.33;;;3.63;;
249;SDS011;109;19.806;-70.704;2024-01-27T06:14:23;13.13;;;3.33;;
249;SDS011;109;19.806;-70.704;2024-01-27T06:16:50;13.97;;;3.10;;
249;SDS011;109;19.806;-70.704;2024-01-27T06:19:23;16.17;;;3.20;;
249;SDS011;109;19.806;-70.704;2024-01-27T06:21:49;8.00;;;2.40;;
249;SDS011;109;19.806;-70.704;2024-01-27T06:24:22;17.13;;;3.20;;
249;SDS011;109;19.806;-70.704;2024-01-27T06:26:48;10.57;;;2.80;;
249;SDS011;109;19.806;-70.704;2024-01-27T06:29:21;15.20;;;2.97;;
249;SDS011;109;19.806;-70.704;2024-01-27T06:31:48;18.40;;;3.93;;
249;SDS011;109;19.806;-70.704;2024-01-27T06:34:21;19.47;;;3.70;;
249;SDS011;109;19.806;-70.704;2024-01-27T06:36:47;13.23;;;3.00;;
249;SDS011;109;19.806;-70.704;2024-01-27T06:39:20;10.20;;;3.10;;
249;SDS011;109;19.806;-70.704;2024-01-27T06:41:47;11.67;;;2.80;;
249;SDS011;109;19.806;-70.704;2024-01-27T06:44:20;18.03;;;2.80;;
249;SDS011;109;19.806;-70.704;2024-01-27T06:46:46;16.83;;;2.97;;
249;SDS011;109;19.806;-70.704;2024-01-27T06:49:22;16.43;;;3.10;;
249;SDS011;109;19.806;-70.704;2024-01-27T06:51:48;14.77;;;3.13;;
249;SDS011;109;19.806;-70.704;2024-01-27T06:54:21;13.90;;;2.57;;
249;SDS011;109;19.806;-70.704;2024-01-27T06:56:47;16.43;;;3.10;;
249;SDS011;109;19.806;-70.704;2024-01-27T06:59:20;18.63;;;3.20;;
249;SDS011;109;19.806;-70.704;2024-01-27T07:01:47;20.57;;;3.03;;
249;SDS011;109;19.806;-70.704;2024-01-27T07:04:20;19.53;;;3.00;;
249;SDS011;109;19.806;-70.704;2024-01-27T07:06:46;14.53;;;3.30;;
249;SDS011;109;19.806;-70.704;2024-01-27T07:09:19;15.10;;;2.80;;
249;SDS011;109;19.806;-70.704;2024-01-27T07:11:45;14.20;;;3.00;;
249;SDS011;109;19.806;-70.704;2024-01-27T07:14:18;11.67;;;3.00;;
249;SDS011;109;19.806;-70.704;2024-01-27T07:16:44;14.80;;;2.93;;
249;SDS011;109;19.806;-70.704;2024-01-27T07:19:17;17.13;;;3.13;;
249;SDS011;109;19.806;-70.704;2024-01-27T07:21:43;20.57;;;3.03;;
249;SDS011;109;19.806;-70.704;2024-01-27T07:24:16;15.33;;;3.33;;
249;SDS011;109;19.806;-70.704;2024-01-27T07:26:42;11.80;;;3.27;;
249;SDS011;109;19.806;-70.704;2024-01-27T07:29:15;12.03;;;3.77;;
249;SDS011;109;19.806;-70.704;2024-01-27T07:31:41;14.67;;;3.27;;
249;SDS011;109;19.806;-70.704;2024-01-27T07:34:14;10.00;;;3.17;;
249;SDS011;109;19.806;-70.704;2024-01-27T07:36:40;15.23;;;3.00;;
249;SDS011;109;19.806;-70.704;2024-01-27T07:39:13;12.83;;;3.03;;
249;SDS011;109;19.806;-70.704;2024-01-27T07:41:39;16.03;;;3.57;;
249;SDS011;109;19.806;-70.704;2024-01-27T07:44:15;22.07;;;3.07;;
249;SDS011;109;19.806;-70.704;2024-01-27T07:46:41;17.60;;;3.77;;
249;SDS011;109;19.806;-70.704;2024-01-27T07:49:14;10.13;;;2.73;;
249;SDS011;109;19.806;-70.704;2024-01-27T07:51:40;15.30;;;3.10;;
249;SDS011;109;19.806;-70.704;2024-01-27T07:54:21;16.73;;;3.00;;
249;SDS011;109;19.806;-70.704;2024-01-27T07:56:55;14.40;;;3.00;;
249;SDS011;109;19.806;-70.704;2024-01-27T07:59:21;20.37;;;3.03;;
249;SDS011;109;19.806;-70.704;2024-01-27T08:01:54;15.20;;;3.57;;
249;SDS011;109;19.806;-70.704;2024-01-27T08:04:20;16.07;;;3.37;;
249;SDS011;109;19.806;-70.704;2024-01-27T08:06:53;22.87;;;3.03;;
249;SDS011;109;19.806;-70.704;2024-01-27T08:09:20;8.97;;;2.90;;
249;SDS011;109;19.806;-70.704;2024-01-27T08:11:53;17.83;;;3.40;;
249;SDS011;109;19.806;-70.704;2024-01-27T08:14:19;11.83;;;2.73;;
249;SDS011;109;19.806;-70.704;2024-01-27T08:16:53;14.90;;;3.50;;
249;SDS011;109;19.806;-70.704;2024-01-27T08:19:20;10.77;;;2.70;;
249;SDS011;109;19.806;-70.704;2024-01-27T08:21:53;13.73;;;3.07;;
249;SDS011;109;19.806;-70.704;2024-01-27T08:24:19;12.23;;;3.47;;
249;SDS011;109;19.806;-70.704;2024-01-27T08:26:54;22.27;;;2.90;;
249;SDS011;109;19.806;-70.704;2024-01-27T08:29:20;18.87;;;3.47;;
249;SDS011;109;19.806;-70.704;2024-01-27T08:31:54;19.80;;;3.00;;
249;SDS011;109;19.806;-70.704;2024-01-27T08:34:20;18.30;;;3.00;;
249;SDS011;109;19.806;-70.704;2024-01-27T08:36:53;28.60;;;4.53;;
249;SDS011;109;19.806;-70.704;2024-01-27T08:39:30;23.10;;;3.40;;
249;SDS011;109;19.806;-70.704;2024-01-27T08:41:56;8.37;;;2.90;;
249;SDS011;109;19.806;-70.704;2024-01-27T08:44:29;24.93;;;3.77;;
249;SDS011;109;19.806;-70.704;2024-01-27T08:46:55;16.07;;;3.20;;
249;SDS011;109;19.806;-70.704;2024-01-27T08:49:28;21.27;;;4.33;;
249;SDS011;109;19.806;-70.704;2024-01-27T08:51:54;12.87;;;3.00;;
249;SDS011;109;19.806;-70.704;2024-01-27T08:54:27;13.00;;;3.20;;
249;SDS011;109;19.806;-70.704;2024-01-27T08:56:53;23.20;;;3.60;;
249;SDS011;109;19.806;-70.704;2024-01-27T08:59:27;16.50;;;3.53;;
249;SDS011;109;19.806;-70.704;2024-01-27T09:01:54;15.10;;;3.00;;
249;SDS011;109;19.806;-70.704;2024-01-27T09:04:27;23.13;;;3.57;;
249;SDS011;109;19.806;-70.704;2024-01-27T09:06:53;14.20;;;3.60;;
249;SDS011;109;19.806;-70.704;2024-01-27T09:09:26;16.13;;;3.93;;
249;SDS011;109;19.806;-70.704;2024-01-27T09:11:54;12.90;;;3.40;;
249;SDS011;109;19.806;-70.704;2024-01-27T09:14:27;15.37;;;2.90;;
249;SDS011;109;19.806;-70.704;2024-01-27T09:16:53;18.30;;;4.70;;
249;SDS011;109;19.806;-70.704;2024-01-27T09:19:26;16.27;;;3.43;;
249;SDS011;109;19.806;-70.704;2024-01-27T09:21:52;16.80;;;3.00;;
249;SDS011;109;19.806;-70.704;2024-01-27T09:24:25;13.23;;;3.37;;
249;SDS011;109;19.806;-70.704;2024-01-27T09:26:52;12.80;;;2.90;;
249;SDS011;109;19.806;-70.704;2024-01-27T09:29:24;14.13;;;3.17;;
249;SDS011;109;19.806;-70.704;2024-01-27T09:31:50;12.63;;;3.07;;
249;SDS011;109;19.806;-70.704;2024-01-27T09:34:23;12.83;;;4.00;;
249;SDS011;109;19.806;-70.704;2024-01-27T09:36:50;18.63;;;3.30;;
249;SDS011;109;19.806;-70.704;2024-01-27T09:39:23;25.57;;;3.73;;
249;SDS011;109;19.806;-70.704;2024-01-27T09:41:49;19.40;;;3.40;;
249;SDS011;109;19.806;-70.704;2024-01-27T09:44:23;18.10;;;3.73;;
249;SDS011;109;19.806;-70.704;2024-01-27T09:46:52;24.23;;;4.00;;
249;SDS011;109;19.806;-70.704;2024-01-27T09:49:27;8.17;;;3.00;;
249;SDS011;109;19.806;-70.704;2024-01-27T09:51:54;12.70;;;3.23;;
249;SDS011;109;19.806;-70.704;2024-01-27T09:54:28;15.13;;;3.20;;
249;SDS011;109;19.806;-70.704;2024-01-27T09:56:54;12.07;;;2.93;;
249;SDS011;109;19.806;-70.704;2024-01-27T09:59:28;15.73;;;3.23;;
249;SDS011;109;19.806;-70.704;2024-01-27T10:01:56;15.77;;;3.47;;
249;SDS011;109;19.806;-70.704;2024-01-27T10:04:30;16.73;;;3.57;;
249;SDS011;109;19.806;-70.704;2024-01-27T10:06:57;16.50;;;3.70;;
249;SDS011;109;19.806;-70.704;2024-01-27T10:09:30;21.13;;;3.87;;
249;SDS011;109;19.806;-70.704;2024-01-27T10:11:56;14.40;;;3.40;;
249;SDS011;109;19.806;-70.704;2024-01-27T10:14:39;17.37;;;4.03;;
249;SDS011;109;19.806;-70.704;2024-01-27T10:17:12;18.23;;;3.47;;
249;SDS011;109;19.806;-70.704;2024-01-27T10:19:38;13.70;;;3.13;;
249;SDS011;109;19.806;-70.704;2024-01-27T10:22:11;35.27;;;4.90;;
249;SDS011;109;19.806;-70.704;2024-01-27T10:24:37;15.63;;;3.20;;
249;SDS011;109;19.806;-70.704;2024-01-27T10:27:10;23.10;;;3.70;;
249;SDS011;109;19.806;-70.704;2024-01-27T10:29:36;13.37;;;3.93;;
249;SDS011;109;19.806;-70.704;2024-01-27T10:32:09;17.40;;;3.67;;
249;SDS011;109;19.806;-70.704;2024-01-27T10:34:36;20.30;;;3.73;;
249;SDS011;109;19.806;-70.704;2024-01-27T10:37:11;15.40;;;3.50;;
249;SDS011;109;19.806;-70.704;2024-01-27T10:39:38;16.03;;;3.63;;
249;SDS011;109;19.806;-70.704;2024-01-27T10:42:11;19.73;;;3.50;;
249;SDS011;109;19.806;-70.704;2024-01-27T10:44:38;16.90;;;3.43;;
249;SDS011;109;19.806;-70.704;2024-01-27T10:47:14;13.20;;;3.27;;
249;SDS011;109;19.806;-70.704;2024-01-27T10:49:52;12.60;;;4.13;;
249;SDS011;109;19.806;-70.704;2024-01-27T10:52:31;13.67;;;3.27;;
249;SDS011;109;19.806;-70.704;2024-01-27T10:55:13;17.60;;;3.20;;
249;SDS011;109;19.806;-70.704;2024-01-27T10:57:41;14.43;;;3.27;;
249;SDS011;109;19.806;-70.704;2024-01-27T11:00:16;17.23;;;3.63;;
249;SDS011;109;19.806;-70.704;2024-01-27T11:02:43;20.43;;;3.80;;
249;SDS011;109;19.806;-70.704;2024-01-27T11:05:17;15.87;;;3.53;;
249;SDS011;109;19.806;-70.704;2024-01-27T11:07:44;18.07;;;3.67;;
249;SDS011;109;19.806;-70.704;2024-01-27T11:10:12;19.70;;;3.83;;
249;SDS011;109;19.806;-70.704;2024-01-27T11:12:39;16.27;;;3.57;;
249;SDS011;109;19.806;-70.704;2024-01-27T11:15:07;19.77;;;3.90;;
249;SDS011;109;19.806;-70.704;2024-01-27T11:17:40;18.50;;;3.53;;
249;SDS011;109;19.806;-70.704;2024-01-27T11:20:08;22.80;;;3.93;;
249;SDS011;109;19.806;-70.704;2024-01-27T11:22:37;12.80;;;3.17;;
249;SDS011;109;19.806;-70.704;2024-01-27T11:27:39;20.43;;;3.83;;
249;SDS011;109;19.806;-70.704;2024-01-27T11:32:54;14.20;;;3.77;;
249;SDS011;109;19.806;-70.704;2024-01-27T11:35:22;17.10;;;4.60;;
249;SDS011;109;19.806;-70.704;2024-01-27T11:37:49;23.27;;;4.40;;
249;SDS011;109;19.806;-70.704;2024-01-27T11:40:15;14.00;;;4.10;;
249;SDS011;109;19.806;-70.704;2024-01-27T11:42:42;18.90;;;4.70;;
249;SDS011;109;19.806;-70.704;2024-01-27T11:45:09;13.00;;;4.00;;
249;SDS011;109;19.806;-70.704;2024-01-27T11:47:35;21.40;;;5.17;;
249;SDS011;109;19.806;-70.704;2024-01-27T11:50:02;22.10;;;4.70;;
249;SDS011;109;19.806;-70.704;2024-01-27T11:52:29;14.00;;;4.40;;
249;SDS011;109;19.806;-70.704;2024-01-27T11:54:56;20.27;;;4.60;;
249;SDS011;109;19.806;-70.704;2024-01-27T11:57:26;22.20;;;4.90;;
249;SDS011;109;19.806;-70.704;2024-01-27T11:59:53;15.83;;;5.00;;
249;SDS011;109;19.806;-70.704;2024-01-27T12:02:20;22.73;;;5.60;;
249;SDS011;109;19.806;-70.704;2024-01-27T12:04:47;23.03;;;6.07;;
249;SDS011;109;19.806;-70.704;2024-01-27T12:07:16;25.00;;;6.03;;
249;SDS011;109;19.806;-70.704;2024-01-27T12:09:48;21.10;;;4.50;;
249;SDS011;109;19.806;-70.704;2024-01-27T12:12:15;25.03;;;6.07;;
249;SDS011;109;19.806;-70.704;2024-01-27T12:14:45;37.53;;;4.93;;
249;SDS011;109;19.806;-70.704;2024-01-27T12:17:13;16.17;;;5.33;;
249;SDS011;109;19.806;-70.704;2024-01-27T12:19:51;22.67;;;4.83;;
249;SDS011;109;19.806;-70.704;2024-01-27T12:22:25;31.90;;;6.77;;
249;SDS011;109;19.806;-70.704;2024-01-27T12:24:53;31.50;;;7.53;;
249;SDS011;109;19.806;-70.704;2024-01-27T12:27:23;21.40;;;8.60;;
249;SDS011;109;19.806;-70.704;2024-01-27T12:29:50;21.40;;;5.23;;
249;SDS011;109;19.806;-70.704;2024-01-27T12:32:17;18.80;;;5.50;;
249;SDS011;109;19.806;-70.704;2024-01-27T12:34:43;34.30;;;7.30;;
249;SDS011;109;19.806;-70.704;2024-01-27T12:37:14;29.83;;;5.67;;
249;SDS011;109;19.806;-70.704;2024-01-27T12:39:43;22.77;;;5.20;;
249;SDS011;109;19.806;-70.704;2024-01-27T12:42:10;14.00;;;4.60;;
249;SDS011;109;19.806;-70.704;2024-01-27T12:44:37;24.30;;;4.27;;
249;SDS011;109;19.806;-70.704;2024-01-27T12:47:04;27.93;;;4.80;;
249;SDS011;109;19.806;-70.704;2024-01-27T12:49:31;23.13;;;4.30;;
249;SDS011;109;19.806;-70.704;2024-01-27T12:51:58;21.30;;;4.83;;
249;SDS011;109;19.806;-70.704;2024-01-27T12:54:24;34.87;;;5.20;;
249;SDS011;109;19.806;-70.704;2024-01-27T12:56:50;24.40;;;5.80;;
249;SDS011;109;19.806;-70.704;2024-01-27T12:59:17;44.03;;;6.07;;
249;SDS011;109;19.806;-70.704;2024-01-27T13:01:43;39.80;;;7.30;;
249;SDS011;109;19.806;-70.704;2024-01-27T13:04:10;34.90;;;5.40;;
249;SDS011;109;19.806;-70.704;2024-01-27T13:06:36;36.27;;;6.30;;
249;SDS011;109;19.806;-70.704;2024-01-27T13:09:03;23.97;;;4.20;;
249;SDS011;109;19.806;-70.704;2024-01-27T13:11:30;16.80;;;4.70;;
249;SDS011;109;19.806;-70.704;2024-01-27T13:13:56;27.73;;;4.97;;
249;SDS011;109;19.806;-70.704;2024-01-27T13:16:22;16.23;;;4.50;;
249;SDS011;109;19.806;-70.704;2024-01-27T13:18:49;14.87;;;4.10;;
249;SDS011;109;19.806;-70.704;2024-01-27T13:21:15;14.03;;;4.43;;
249;SDS011;109;19.806;-70.704;2024-01-27T13:23:42;13.90;;;3.93;;
249;SDS011;109;19.806;-70.704;2024-01-27T13:26:08;15.10;;;3.57;;
249;SDS011;109;19.806;-70.704;2024-01-27T13:28:34;11.87;;;3.53;;
249;SDS011;109;19.806;-70.704;2024-01-27T13:31:01;11.33;;;4.80;;
249;SDS011;109;19.806;-70.704;2024-01-27T13:33:27;18.47;;;4.57;;
249;SDS011;109;19.806;-70.704;2024-01-27T13:35:54;11.03;;;3.63;;
249;SDS011;109;19.806;-70.704;2024-01-27T13:38:21;15.97;;;5.10;;
249;SDS011;109;19.806;-70.704;2024-01-27T13:40:51;19.03;;;4.03;;
249;SDS011;109;19.806;-70.704;2024-01-27T13:43:18;11.83;;;3.80;;
249;SDS011;109;19.806;-70.704;2024-01-27T13:45:44;17.27;;;4.00;;
249;SDS011;109;19.806;-70.704;2024-01-27T13:48:12;18.43;;;4.50;;
249;SDS011;109;19.806;-70.704;2024-01-27T13:50:39;11.80;;;3.37;;
249;SDS011;109;19.806;-70.704;2024-01-27T13:53:05;14.40;;;3.60;;
249;SDS011;109;19.806;-70.704;2024-01-27T13:55:32;13.23;;;3.60;;
249;SDS011;109;19.806;-70.704;2024-01-27T13:57:58;14.37;;;3.50;;
249;SDS011;109;19.806;-70.704;2024-01-27T14:00:25;12.60;;;3.70;;
249;SDS011;109;19.806;-70.704;2024-01-27T14:02:51;22.67;;;4.40;;
249;SDS011;109;19.806;-70.704;2024-01-27T14:05:18;48.77;;;6.40;;
249;SDS011;109;19.806;-70.704;2024-01-27T14:07:44;43.47;;;6.70;;
249;SDS011;109;19.806;-70.704;2024-01-27T14:10:11;14.23;;;3.57;;
249;SDS011;109;19.806;-70.704;2024-01-27T14:12:37;23.67;;;3.80;;
249;SDS011;109;19.806;-70.704;2024-01-27T14:15:04;11.57;;;2.80;;
249;SDS011;109;19.806;-70.704;2024-01-27T14:17:35;11.07;;;3.30;;
249;SDS011;109;19.806;-70.704;2024-01-27T14:20:04;16.77;;;3.10;;
249;SDS011;109;19.806;-70.704;2024-01-27T14:22:31;11.90;;;3.53;;
249;SDS011;109;19.806;-70.704;2024-01-27T14:24:57;19.03;;;4.00;;
249;SDS011;109;19.806;-70.704;2024-01-27T14:27:24;35.93;;;5.60;;
249;SDS011;109;19.806;-70.704;2024-01-27T14:29:53;21.23;;;4.63;;
249;SDS011;109;19.806;-70.704;2024-01-27T14:32:21;22.43;;;4.00;;
249;SDS011;109;19.806;-70.704;2024-01-27T14:34:47;22.57;;;4.43;;
249;SDS011;109;19.806;-70.704;2024-01-27T14:37:15;18.50;;;3.63;;
249;SDS011;109;19.806;-70.704;2024-01-27T14:39:45;12.40;;;3.80;;
249;SDS011;109;19.806;-70.704;2024-01-27T14:42:13;16.93;;;3.73;;
249;SDS011;109;19.806;-70.704;2024-01-27T14:44:40;18.10;;;3.20;;
249;SDS011;109;19.806;-70.704;2024-01-27T14:47:08;10.37;;;2.73;;
249;SDS011;109;19.806;-70.704;2024-01-27T14:49:35;12.53;;;3.10;;
249;SDS011;109;19.806;-70.704;2024-01-27T14:52:06;22.67;;;4.07;;
249;SDS011;109;19.806;-70.704;2024-01-27T14:54:33;15.80;;;4.20;;
249;SDS011;109;19.806;-70.704;2024-01-27T14:57:00;24.27;;;3.70;;
249;SDS011;109;19.806;-70.704;2024-01-27T14:59:29;18.20;;;4.30;;
249;SDS011;109;19.806;-70.704;2024-01-27T15:01:55;20.07;;;4.00;;
249;SDS011;109;19.806;-70.704;2024-01-27T15:04:25;16.30;;;3.67;;
249;SDS011;109;19.806;-70.704;2024-01-27T15:06:55;18.60;;;3.60;;
249;SDS011;109;19.806;-70.704;2024-01-27T15:09:23;23.53;;;4.50;;
249;SDS011;109;19.806;-70.704;2024-01-27T15:11:50;28.40;;;5.00;;
249;SDS011;109;19.806;-70.704;2024-01-27T15:14:17;15.77;;;3.43;;
249;SDS011;109;19.806;-70.704;2024-01-27T15:16:44;24.00;;;3.83;;
249;SDS011;109;19.806;-70.704;2024-01-27T15:19:14;19.33;;;4.37;;
249;SDS011;109;19.806;-70.704;2024-01-27T15:21:40;32.07;;;5.10;;